createdAt,value
2018-09-15T00:01:51.893Z,99.90
2018-09-15T00:04:23.291Z,99.90
2018-09-15T00:06:55.036Z,99.90
2018-09-15T00:09:26.484Z,99.90
2018-09-15T00:11:57.632Z,99.90
2018-09-15T00:14:28.980Z,99.90
2018-09-15T00:17:00.194Z,99.90
2018-09-15T00:19:31.171Z,99.90
2018-09-15T00:22:02.214Z,99.90
2018-09-15T00:24:33.585Z,99.90
2018-09-15T00:27:05.328Z,99.90
2018-09-15T00:29:36.550Z,99.90
2018-09-15T00:32:08.074Z,99.90
2018-09-15T00:34:39.328Z,99.90
2018-09-15T00:37:10.736Z,99.90
2018-09-15T00:39:41.924Z,99.90
2018-09-15T00:42:13.280Z,99.90
2018-09-15T00:44:44.454Z,99.90
2018-09-15T00:47:15.663Z,99.90
2018-09-15T00:49:46.839Z,99.90
2018-09-15T00:52:18.050Z,99.90
2018-09-15T00:54:49.243Z,99.90
2018-09-15T00:57:20.236Z,99.90
2018-09-15T00:59:51.431Z,99.90
2018-09-15T01:02:22.455Z,99.90
2018-09-15T01:04:54.010Z,99.90
2018-09-15T01:07:25.020Z,99.90
2018-09-15T01:09:56.370Z,99.90
2018-09-15T01:12:27.564Z,99.90
2018-09-15T01:14:58.791Z,99.90
2018-09-15T01:17:30.208Z,99.90
2018-09-15T01:20:01.909Z,99.90
2018-09-15T01:22:33.143Z,99.90
2018-09-15T01:25:04.155Z,99.90
2018-09-15T01:27:35.604Z,99.90
2018-09-15T01:30:06.986Z,99.90
2018-09-15T01:32:38.156Z,99.90
2018-09-15T01:35:09.340Z,99.90
2018-09-15T01:37:40.689Z,99.90
2018-09-15T01:40:11.720Z,99.90
2018-09-15T01:42:43.079Z,99.90
2018-09-15T01:45:14.071Z,99.90
2018-09-15T01:47:45.273Z,99.90
2018-09-15T01:50:16.453Z,99.90
2018-09-15T01:52:47.456Z,99.90
2018-09-15T01:55:18.613Z,99.90
2018-09-15T01:57:50.106Z,99.90
2018-09-15T02:00:21.196Z,99.90
2018-09-15T02:02:52.395Z,99.90
2018-09-15T02:05:23.823Z,99.90
2018-09-15T02:07:55.479Z,99.90
2018-09-15T02:10:26.792Z,99.90
2018-09-15T02:12:57.938Z,99.90
2018-09-15T02:15:29.118Z,99.90
2018-09-15T02:18:00.330Z,99.90
2018-09-15T02:20:31.308Z,99.90
2018-09-15T02:23:02.602Z,99.90
2018-09-15T02:30:23.199Z,99.90
2018-09-15T02:32:54.551Z,99.90
2018-09-15T02:35:25.708Z,99.90
2018-09-15T02:37:56.928Z,99.90
2018-09-15T02:40:28.631Z,99.90
2018-09-15T02:42:59.854Z,99.90
2018-09-15T02:45:31.039Z,99.90
2018-09-15T02:48:02.084Z,99.90
2018-09-15T02:50:33.259Z,99.90
2018-09-15T02:53:04.224Z,99.90
2018-09-15T02:55:35.480Z,99.90
2018-09-15T02:58:06.901Z,99.90
2018-09-15T03:00:38.259Z,99.90
2018-09-15T03:03:09.611Z,99.90
2018-09-15T03:05:40.988Z,99.90
2018-09-15T03:08:12.195Z,99.90
2018-09-15T03:10:43.315Z,99.90
2018-09-15T03:13:14.838Z,99.90
2018-09-15T03:15:46.135Z,99.90
2018-09-15T03:18:17.140Z,99.90
2018-09-15T03:20:48.320Z,99.90
2018-09-15T03:23:19.943Z,99.90
2018-09-15T03:25:51.451Z,99.90
2018-09-15T03:28:22.689Z,99.90
2018-09-15T03:30:53.886Z,99.90
2018-09-15T03:33:24.875Z,99.90
2018-09-15T03:35:56.375Z,99.90
2018-09-15T03:38:27.659Z,99.90
2018-09-15T03:40:58.807Z,99.90
2018-09-15T03:43:29.851Z,99.90
2018-09-15T03:50:49.518Z,99.90
2018-09-15T03:53:20.912Z,99.90
2018-09-15T03:55:52.052Z,99.90
2018-09-15T03:58:23.505Z,99.90
2018-09-15T04:00:54.816Z,99.90
2018-09-15T04:03:25.996Z,99.90
2018-09-15T04:05:57.042Z,99.90
2018-09-15T04:08:28.196Z,99.90
2018-09-15T04:10:59.376Z,99.90
2018-09-15T04:13:30.370Z,99.90
2018-09-15T04:16:01.888Z,99.90
2018-09-15T04:18:33.438Z,99.90
2018-09-15T04:21:04.740Z,99.90
2018-09-15T04:23:35.727Z,99.90
2018-09-15T04:26:06.907Z,99.90
2018-09-15T04:28:38.177Z,99.90
2018-09-15T04:31:09.503Z,99.90
2018-09-15T04:33:40.732Z,99.90
2018-09-15T04:36:12.219Z,99.90
2018-09-15T04:38:44.272Z,99.90
2018-09-15T04:41:15.780Z,99.90
2018-09-15T04:43:46.845Z,99.90
2018-09-15T04:46:18.069Z,99.90
2018-09-15T04:48:49.267Z,99.90
2018-09-15T04:51:20.670Z,99.90
2018-09-15T04:53:51.999Z,99.90
2018-09-15T04:56:23.205Z,99.90
2018-09-15T04:58:54.463Z,99.90
2018-09-15T05:01:26.251Z,99.90
2018-09-15T05:03:57.551Z,99.90
2018-09-15T05:06:28.780Z,99.90
2018-09-15T05:09:00.629Z,99.90
2018-09-15T05:11:31.751Z,99.90
2018-09-15T05:14:02.912Z,99.90
2018-09-15T05:16:34.155Z,99.90
2018-09-15T05:19:05.547Z,99.90
2018-09-15T05:21:36.954Z,99.90
2018-09-15T05:24:08.052Z,99.90
2018-09-15T05:26:39.081Z,99.90
2018-09-15T05:29:10.084Z,99.90
2018-09-15T05:31:41.321Z,99.90
2018-09-15T05:34:12.637Z,99.90
2018-09-15T05:36:44.134Z,99.90
2018-09-15T05:39:15.429Z,99.90
2018-09-15T05:41:46.528Z,99.90
2018-09-15T05:44:17.604Z,99.90
2018-09-15T05:46:49.598Z,99.90
2018-09-15T05:49:20.981Z,99.90
2018-09-15T05:51:52.023Z,99.90
2018-09-15T05:54:23.247Z,99.90
2018-09-15T05:56:54.547Z,99.90
2018-09-15T05:59:25.966Z,99.90
2018-09-15T06:01:57.293Z,99.90
2018-09-15T06:04:28.803Z,99.90
2018-09-15T06:07:00.099Z,99.90
2018-09-15T06:09:31.102Z,99.90
2018-09-15T06:12:02.286Z,99.90
2018-09-15T06:14:33.495Z,99.90
2018-09-15T06:17:05.531Z,99.90
2018-09-15T06:19:36.840Z,99.90
2018-09-15T06:22:08.312Z,99.90
2018-09-15T06:24:39.915Z,99.90
2018-09-15T06:27:11.216Z,99.90
2018-09-15T06:29:42.206Z,99.90
2018-09-15T06:32:13.279Z,99.90
2018-09-15T06:34:44.678Z,99.90
2018-09-15T06:37:15.979Z,99.90
2018-09-15T06:39:47.199Z,99.90
2018-09-15T06:42:18.364Z,99.90
2018-09-15T06:44:49.361Z,99.90
2018-09-15T06:47:21.022Z,99.90
2018-09-15T06:49:52.337Z,99.90
2018-09-15T06:52:24.069Z,99.90
2018-09-15T06:54:55.313Z,99.90
2018-09-15T06:57:26.305Z,99.90
2018-09-15T06:59:57.501Z,99.90
2018-09-15T07:02:28.553Z,99.90
2018-09-15T07:05:00.158Z,99.90
2018-09-15T07:07:31.275Z,99.90
2018-09-15T07:10:03.480Z,99.90
2018-09-15T07:12:34.819Z,99.90
2018-09-15T07:15:06.106Z,99.90
2018-09-15T07:17:37.392Z,99.90
2018-09-15T07:20:08.696Z,99.90
2018-09-15T07:22:39.778Z,99.90
2018-09-15T07:25:10.995Z,99.90
2018-09-15T07:27:42.172Z,99.90
2018-09-15T07:30:13.212Z,99.90
2018-09-15T07:32:44.421Z,99.90
2018-09-15T07:35:15.812Z,99.90
2018-09-15T07:37:47.228Z,99.90
2018-09-15T07:40:18.676Z,99.90
2018-09-15T07:42:49.884Z,99.90
2018-09-15T07:45:21.173Z,99.90
2018-09-15T07:47:52.482Z,99.90
2018-09-15T07:50:24.007Z,99.90
2018-09-15T07:52:55.559Z,99.90
2018-09-15T07:55:26.911Z,99.90
2018-09-15T07:57:58.369Z,99.90
2018-09-15T08:00:29.473Z,99.90
2018-09-15T08:03:00.615Z,99.90
2018-09-15T08:05:32.004Z,99.90
2018-09-15T08:08:03.231Z,99.90
2018-09-15T08:10:34.487Z,99.90
2018-09-15T08:13:05.635Z,99.90
2018-09-15T08:15:37.010Z,99.90
2018-09-15T08:18:08.344Z,99.90
2018-09-15T08:20:39.577Z,99.90
2018-09-15T08:23:10.931Z,99.90
2018-09-15T08:25:42.550Z,99.90
2018-09-15T08:28:13.555Z,99.90
2018-09-15T08:30:44.770Z,99.90
2018-09-15T08:33:17.376Z,99.90
2018-09-15T08:35:48.694Z,99.90
2018-09-15T08:38:20.374Z,99.90
2018-09-15T08:40:51.663Z,99.90
2018-09-15T08:43:22.965Z,99.90
2018-09-15T08:45:55.067Z,99.90
2018-09-15T08:48:26.316Z,99.90
2018-09-15T08:50:57.632Z,99.90
2018-09-15T08:53:28.974Z,99.90
2018-09-15T08:56:01.079Z,99.90
2018-09-15T08:58:32.376Z,99.90
2018-09-15T09:01:03.792Z,99.90
2018-09-15T09:03:35.159Z,99.90
2018-09-15T09:06:06.110Z,99.90
2018-09-15T09:08:37.600Z,99.90
2018-09-15T09:11:08.911Z,99.90
2018-09-15T09:13:40.693Z,99.90
2018-09-15T09:16:11.852Z,99.90
2018-09-15T09:18:43.072Z,99.90
2018-09-15T09:21:14.272Z,99.90
2018-09-15T09:23:45.721Z,99.90
2018-09-15T09:26:17.352Z,99.90
2018-09-15T09:28:48.603Z,99.90
2018-09-15T09:31:19.880Z,99.90
2018-09-15T09:33:51.371Z,99.90
2018-09-15T09:36:22.402Z,99.90
2018-09-15T09:38:53.767Z,99.90
2018-09-15T09:41:25.058Z,99.90
2018-09-15T09:43:56.513Z,99.90
2018-09-15T09:46:27.556Z,99.90
2018-09-15T09:48:58.559Z,99.90
2018-09-15T09:51:29.703Z,99.90
2018-09-15T09:54:00.991Z,99.90
2018-09-15T09:56:32.323Z,99.90
2018-09-15T09:59:03.316Z,99.90
2018-09-15T10:01:39.643Z,99.90
2018-09-15T10:04:11.051Z,99.90
2018-09-15T10:06:42.383Z,99.90
2018-09-15T10:09:13.422Z,99.90
2018-09-15T10:11:44.872Z,99.90
2018-09-15T10:14:16.823Z,99.90
2018-09-15T10:16:48.155Z,99.90
2018-09-15T10:19:19.124Z,99.90
2018-09-15T10:21:50.929Z,99.90
2018-09-15T10:24:21.935Z,99.90
2018-09-15T10:26:53.391Z,99.90
2018-09-15T10:29:24.728Z,99.90
2018-09-15T10:31:56.039Z,99.90
2018-09-15T10:34:27.082Z,99.90
2018-09-15T10:36:58.287Z,99.90
2018-09-15T10:39:29.939Z,99.90
2018-09-15T10:42:01.558Z,99.90
2018-09-15T10:44:32.818Z,99.90
2018-09-15T10:47:04.073Z,99.90
2018-09-15T10:49:35.392Z,99.90
2018-09-15T10:52:06.625Z,99.90
2018-09-15T10:54:37.883Z,99.90
2018-09-15T10:57:08.991Z,99.90
2018-09-15T10:59:40.303Z,99.90
2018-09-15T11:02:14.312Z,99.90
2018-09-15T11:04:46.993Z,99.90
2018-09-15T11:07:18.287Z,99.90
2018-09-15T11:09:49.279Z,99.90
2018-09-15T11:12:20.632Z,99.90
2018-09-15T11:14:51.833Z,99.90
2018-09-15T11:17:23.045Z,99.90
2018-09-15T11:19:54.263Z,99.90
2018-09-15T11:22:25.899Z,99.90
2018-09-15T11:24:57.187Z,99.50
2018-09-15T11:27:28.415Z,99.90
2018-09-15T11:29:59.761Z,99.90
2018-09-15T11:32:32.162Z,99.90
2018-09-15T11:35:03.178Z,99.50
2018-09-15T11:37:34.524Z,98.60
2018-09-15T11:40:05.787Z,99.50
2018-09-15T11:42:37.265Z,99.90
2018-09-15T11:45:08.496Z,99.90
2018-09-15T11:47:39.685Z,99.90
2018-09-15T11:50:10.952Z,99.80
2018-09-15T11:52:42.111Z,98.90
2018-09-15T11:55:13.627Z,99.80
2018-09-15T11:57:45.131Z,99.90
2018-09-15T12:00:19.706Z,99.40
2018-09-15T12:02:51.139Z,99.90
2018-09-15T12:05:22.351Z,98.80
2018-09-15T12:07:53.629Z,98.40
2018-09-15T12:10:25.235Z,97.30
2018-09-15T12:12:56.331Z,97.10
2018-09-15T12:15:27.547Z,96.30
2018-09-15T12:17:58.771Z,96.90
2018-09-15T12:20:29.919Z,96.30
2018-09-15T12:23:01.167Z,96.40
2018-09-15T12:25:33.731Z,94.80
2018-09-15T12:28:04.886Z,95.30
2018-09-15T12:30:36.295Z,95.00
2018-09-15T12:33:07.684Z,94.20
2018-09-15T12:35:39.102Z,92.20
2018-09-15T12:38:10.202Z,93.70
2018-09-15T12:40:41.427Z,93.20
2018-09-15T12:43:14.242Z,93.00
2018-09-15T12:45:45.599Z,92.90
2018-09-15T12:48:16.930Z,92.10
2018-09-15T12:50:48.151Z,92.20
2018-09-15T12:53:19.505Z,92.40
2018-09-15T12:55:50.459Z,91.70
2018-09-15T12:58:21.738Z,91.70
2018-09-15T13:00:53.102Z,92.40
2018-09-15T13:03:24.144Z,92.30
2018-09-15T13:05:55.935Z,93.50
2018-09-15T13:08:27.567Z,93.40
2018-09-15T13:10:58.843Z,93.30
2018-09-15T13:13:30.056Z,93.20
2018-09-15T13:16:01.556Z,93.00
2018-09-15T13:18:32.849Z,91.00
2018-09-15T13:21:04.032Z,92.10
2018-09-15T13:23:35.484Z,91.90
2018-09-15T13:26:06.831Z,91.90
2018-09-15T13:28:38.453Z,92.10
2018-09-15T13:31:09.742Z,92.40
2018-09-15T13:33:40.828Z,92.10
2018-09-15T13:36:12.193Z,92.30
2018-09-15T13:43:33.797Z,91.50
2018-09-15T13:46:05.643Z,92.20
2018-09-15T13:48:37.058Z,91.30
2018-09-15T13:51:09.017Z,90.50
2018-09-15T13:53:40.275Z,91.70
2018-09-15T13:56:11.465Z,90.80
2018-09-15T13:58:42.665Z,91.20
2018-09-15T14:01:14.044Z,90.70
2018-09-15T14:03:45.293Z,91.50
2018-09-15T14:06:16.638Z,91.40
2018-09-15T14:08:48.011Z,91.40
2018-09-15T14:11:19.031Z,91.60
2018-09-15T14:13:50.400Z,91.70
2018-09-15T14:16:21.629Z,90.20
2018-09-15T14:18:53.003Z,90.40
2018-09-15T14:21:24.963Z,89.60
2018-09-15T14:23:56.660Z,88.40
2018-09-15T14:26:27.943Z,89.70
2018-09-15T14:28:59.345Z,90.00
2018-09-15T14:31:30.540Z,89.80
2018-09-15T14:34:03.755Z,89.60
2018-09-15T14:36:35.327Z,90.20
2018-09-15T14:39:09.262Z,91.20
2018-09-15T14:41:40.625Z,90.20
2018-09-15T14:44:13.054Z,90.80
2018-09-15T14:46:44.160Z,91.00
2018-09-15T14:49:15.319Z,88.70
2018-09-15T14:51:46.558Z,90.20
2018-09-15T14:54:18.231Z,89.50
2018-09-15T14:56:49.504Z,90.10
2018-09-15T14:59:20.975Z,91.20
2018-09-15T15:01:52.257Z,89.40
2018-09-15T15:04:23.467Z,90.20
2018-09-15T15:06:54.468Z,90.50
2018-09-15T15:09:25.657Z,90.20
2018-09-15T15:11:57.135Z,90.10
2018-09-15T15:14:28.952Z,89.20
2018-09-15T15:17:00.214Z,90.50
2018-09-15T15:19:31.752Z,90.30
2018-09-15T15:22:03.005Z,90.20
2018-09-15T15:24:34.049Z,90.30
2018-09-15T15:27:05.234Z,90.70
2018-09-15T15:29:36.375Z,90.50
2018-09-15T15:32:07.839Z,90.00
2018-09-15T15:34:40.446Z,88.30
2018-09-15T15:37:11.512Z,88.40
2018-09-15T15:39:42.487Z,88.40
2018-09-15T15:42:13.762Z,90.00
2018-09-15T15:44:45.083Z,90.30
2018-09-15T15:47:16.554Z,91.50
2018-09-15T15:49:49.053Z,91.50
2018-09-15T15:52:20.025Z,91.60
2018-09-15T15:54:52.234Z,91.50
2018-09-15T15:57:23.219Z,91.60
2018-09-15T15:59:56.057Z,90.70
2018-09-15T16:02:27.644Z,90.90
2018-09-15T16:04:59.419Z,91.20
2018-09-15T16:07:30.730Z,91.20
2018-09-15T16:10:01.711Z,91.40
2018-09-15T16:12:32.904Z,91.30
2018-09-15T16:16:14.184Z,91.10
2018-09-15T16:21:29.331Z,91.90
2018-09-15T16:30:21.903Z,91.10
2018-09-15T16:32:53.238Z,91.50
2018-09-15T16:35:24.715Z,91.60
2018-09-15T16:37:55.863Z,91.60
2018-09-15T16:40:27.077Z,91.90
2018-09-15T16:42:58.419Z,92.00
2018-09-15T16:45:29.608Z,92.60
2018-09-15T16:48:00.594Z,91.90
2018-09-15T16:50:31.599Z,91.90
2018-09-15T16:53:02.800Z,91.60
2018-09-15T16:55:33.808Z,91.70
2018-09-15T16:58:05.532Z,91.90
2018-09-15T17:00:36.627Z,91.70
2018-09-15T17:03:07.960Z,91.90
2018-09-15T17:05:39.423Z,92.40
2018-09-15T17:08:10.723Z,91.50
2018-09-15T17:10:42.211Z,91.70
2018-09-15T17:13:13.320Z,92.50
2018-09-15T17:15:44.508Z,92.10
2018-09-15T17:18:16.498Z,92.20
2018-09-15T17:20:47.914Z,92.30
2018-09-15T17:23:19.467Z,92.50
2018-09-15T17:25:50.432Z,92.50
2018-09-15T17:28:21.704Z,92.70
2018-09-15T17:30:53.106Z,92.70
2018-09-15T17:33:24.726Z,92.60
2018-09-15T17:35:55.847Z,93.10
2018-09-15T17:38:27.175Z,93.60
2018-09-15T17:40:58.259Z,94.20
2018-09-15T17:43:29.555Z,94.00
2018-09-15T17:46:00.550Z,94.30
2018-09-15T17:48:31.554Z,95.00
2018-09-15T17:51:02.584Z,95.30
2018-09-15T17:53:33.571Z,95.70
2018-09-15T17:56:04.779Z,96.20
2018-09-15T17:58:36.123Z,96.50
2018-09-15T18:01:07.308Z,96.50
2018-09-15T18:03:38.376Z,96.70
2018-09-15T18:06:09.559Z,97.30
2018-09-15T18:08:40.727Z,97.60
2018-09-15T18:11:11.744Z,97.70
2018-09-15T18:13:43.375Z,98.20
2018-09-15T18:16:14.674Z,98.10
2018-09-15T18:18:45.676Z,98.50
2018-09-15T18:21:17.228Z,98.90
2018-09-15T18:23:48.463Z,99.20
2018-09-15T18:26:20.023Z,99.40
2018-09-15T18:28:51.995Z,99.90
2018-09-15T18:31:23.084Z,99.90
2018-09-15T18:33:54.438Z,99.90
2018-09-15T18:36:26.134Z,99.90
2018-09-15T18:38:57.295Z,99.90
2018-09-15T18:41:28.585Z,99.90
2018-09-15T18:44:00.250Z,99.90
2018-09-15T18:46:31.318Z,99.90
2018-09-15T18:49:03.102Z,99.90
2018-09-15T18:51:34.290Z,99.90
2018-09-15T18:54:06.098Z,99.90
2018-09-15T18:56:37.092Z,99.90
2018-09-15T18:59:08.285Z,99.90
2018-09-15T19:01:39.307Z,99.90
2018-09-15T19:04:10.471Z,99.90
2018-09-15T19:06:41.500Z,99.90
2018-09-15T19:09:13.611Z,99.90
2018-09-15T19:11:44.973Z,99.90
2018-09-15T19:14:16.224Z,99.90
2018-09-15T19:16:47.612Z,99.90
2018-09-15T19:19:18.660Z,99.90
2018-09-15T19:21:50.120Z,99.90
2018-09-15T19:24:21.216Z,99.90
2018-09-15T19:26:52.689Z,99.90
2018-09-15T19:29:24.275Z,99.90
2018-09-15T19:31:55.428Z,99.90
2018-09-15T19:34:26.539Z,99.90
2018-09-15T19:36:57.735Z,99.90
2018-09-15T19:39:28.789Z,99.90
2018-09-15T19:42:00.229Z,99.90
2018-09-15T19:44:31.352Z,99.90
2018-09-15T19:47:02.718Z,99.90
2018-09-15T19:49:34.143Z,99.90
2018-09-15T19:52:05.332Z,99.90
2018-09-15T19:54:36.530Z,99.90
2018-09-15T19:57:07.707Z,99.90
2018-09-15T19:59:38.922Z,99.90
2018-09-15T20:02:10.072Z,99.90
2018-09-15T20:04:41.258Z,99.90
2018-09-15T20:07:12.672Z,99.90
2018-09-15T20:09:43.837Z,99.90
2018-09-15T20:12:15.106Z,99.90
2018-09-15T20:14:46.657Z,99.90
2018-09-15T20:17:15.317Z,99.90
2018-09-15T20:19:43.760Z,99.90
2018-09-15T20:22:15.020Z,99.90
2018-09-15T20:24:46.101Z,99.90
2018-09-15T20:27:17.401Z,99.90
2018-09-15T20:29:48.646Z,99.90
2018-09-15T20:32:20.059Z,99.90
2018-09-15T20:34:51.439Z,99.90
2018-09-15T20:37:22.792Z,99.90
2018-09-15T20:39:53.789Z,99.90
2018-09-15T20:42:25.079Z,99.90
2018-09-15T20:44:56.385Z,99.90
2018-09-15T20:47:27.570Z,99.90
2018-09-15T20:49:59.198Z,99.90
2018-09-15T20:52:31.004Z,99.90
2018-09-15T20:55:02.300Z,99.90
2018-09-15T20:57:33.483Z,99.90
2018-09-15T21:00:04.825Z,99.90
2018-09-15T21:02:36.079Z,99.90
2018-09-15T21:05:08.119Z,99.90
2018-09-15T21:07:39.491Z,99.90
2018-09-15T21:10:10.703Z,99.90
2018-09-15T21:12:41.999Z,99.90
2018-09-15T21:15:13.226Z,99.90
2018-09-15T21:17:44.182Z,99.90
2018-09-15T21:20:15.896Z,99.90
2018-09-15T21:22:47.175Z,99.90
2018-09-15T21:25:18.352Z,99.90
2018-09-15T21:27:49.363Z,99.90
2018-09-15T21:30:20.840Z,99.90
2018-09-15T21:32:52.431Z,99.90
2018-09-15T21:35:24.019Z,99.90
2018-09-15T21:37:55.123Z,99.90
2018-09-15T21:40:26.327Z,99.90
2018-09-15T21:42:58.271Z,99.90
2018-09-15T21:45:29.297Z,99.90
2018-09-15T21:48:00.470Z,99.90
2018-09-15T21:50:31.954Z,99.90
2018-09-15T21:53:03.268Z,99.90
2018-09-15T21:55:34.239Z,99.90
2018-09-15T21:58:05.510Z,99.90
2018-09-15T22:00:36.960Z,99.90
2018-09-15T22:03:08.290Z,99.90
2018-09-15T22:05:39.515Z,99.90
2018-09-15T22:08:11.669Z,99.90
2018-09-15T22:10:42.981Z,99.90
2018-09-15T22:13:14.007Z,99.90
2018-09-15T22:15:45.402Z,99.90
2018-09-15T22:18:16.712Z,99.90
2018-09-15T22:20:47.940Z,99.90
2018-09-15T22:23:19.143Z,99.90
2018-09-15T22:25:50.535Z,99.90
2018-09-15T22:28:21.695Z,99.90
2018-09-15T22:30:52.879Z,99.90
2018-09-15T22:33:24.092Z,99.90
2018-09-15T22:35:55.583Z,99.90
2018-09-15T22:38:27.135Z,99.90
2018-09-15T22:40:58.286Z,99.90
2018-09-15T22:43:29.723Z,99.90
2018-09-15T22:46:01.000Z,99.90
2018-09-15T22:48:32.437Z,99.90
2018-09-15T22:51:03.581Z,99.90
2018-09-15T22:53:34.607Z,99.90
2018-09-15T22:56:05.818Z,99.90
2018-09-15T22:58:36.793Z,99.90
2018-09-15T23:01:08.007Z,99.90
2018-09-15T23:03:39.356Z,99.90
2018-09-15T23:06:10.547Z,99.90
2018-09-15T23:08:42.031Z,99.90
2018-09-15T23:11:13.334Z,99.90
2018-09-15T23:13:44.376Z,99.90
2018-09-15T23:16:15.334Z,99.90
2018-09-15T23:18:47.037Z,99.90
2018-09-15T23:21:18.112Z,99.90
2018-09-15T23:23:49.432Z,99.90
2018-09-15T23:26:21.341Z,99.90
2018-09-15T23:28:52.475Z,99.90
2018-09-15T23:31:23.920Z,99.90
2018-09-15T23:33:55.163Z,99.90
2018-09-15T23:36:26.720Z,99.90
2018-09-15T23:38:58.110Z,99.90
2018-09-15T23:41:29.425Z,99.90
2018-09-15T23:44:00.623Z,99.90
2018-09-15T23:46:31.976Z,99.90
2018-09-15T23:49:03.167Z,99.90
2018-09-15T23:51:34.366Z,99.90
2018-09-15T23:54:05.406Z,99.90
2018-09-15T23:57:39.282Z,99.90
